sensor_id;sensor_type;location;lat;lon;timestamp;P1;durP1;ratioP1;P2;durP2;ratioP2
6564;SDS011;3316;44.118;27.258;2022-09-27T00:01:12;7.43;;;6.07;;
6564;SDS011;3316;44.118;27.258;2022-09-27T00:03:39;7.67;;;5.60;;
6564;SDS011;3316;44.118;27.258;2022-09-27T00:08:37;8.33;;;6.10;;
6564;SDS011;3316;44.118;27.258;2022-09-27T00:11:04;7.30;;;5.60;;
6564;SDS011;3316;44.118;27.258;2022-09-27T00:13:31;10.27;;;5.73;;
6564;SDS011;3316;44.118;27.258;2022-09-27T00:15:58;9.57;;;6.30;;
6564;SDS011;3316;44.118;27.258;2022-09-27T00:18:25;10.77;;;6.27;;
6564;SDS011;3316;44.118;27.258;2022-09-27T00:20:51;9.67;;;5.83;;
6564;SDS011;3316;44.118;27.258;2022-09-27T00:23:17;9.57;;;5.80;;
6564;SDS011;3316;44.118;27.258;2022-09-27T00:25:53;8.03;;;5.93;;
6564;SDS011;3316;44.118;27.258;2022-09-27T00:28:19;10.67;;;7.07;;
6564;SDS011;3316;44.118;27.258;2022-09-27T00:30:45;10.57;;;5.70;;
6564;SDS011;3316;44.118;27.258;2022-09-27T00:33:10;7.90;;;5.70;;
6564;SDS011;3316;44.118;27.258;2022-09-27T00:35:36;12.43;;;6.80;;
6564;SDS011;3316;44.118;27.258;2022-09-27T00:38:01;9.37;;;5.90;;
6564;SDS011;3316;44.118;27.258;2022-09-27T00:40:27;9.77;;;6.10;;
6564;SDS011;3316;44.118;27.258;2022-09-27T00:42:52;9.37;;;5.93;;
6564;SDS011;3316;44.118;27.258;2022-09-27T00:45:18;7.73;;;6.10;;
6564;SDS011;3316;44.118;27.258;2022-09-27T00:53:09;7.57;;;5.97;;
6564;SDS011;3316;44.118;27.258;2022-09-27T00:55:52;12.37;;;5.83;;
6564;SDS011;3316;44.118;27.258;2022-09-27T00:58:23;8.50;;;6.00;;
6564;SDS011;3316;44.118;27.258;2022-09-27T01:00:57;9.30;;;6.17;;
6564;SDS011;3316;44.118;27.258;2022-09-27T01:06:09;8.97;;;5.93;;
6564;SDS011;3316;44.118;27.258;2022-09-27T01:08:34;14.07;;;6.00;;
6564;SDS011;3316;44.118;27.258;2022-09-27T01:13:39;8.17;;;6.17;;
6564;SDS011;3316;44.118;27.258;2022-09-27T01:22:10;7.00;;;5.23;;
6564;SDS011;3316;44.118;27.258;2022-09-27T01:25:00;9.00;;;6.37;;
6564;SDS011;3316;44.118;27.258;2022-09-27T01:44:22;9.33;;;6.30;;
6564;SDS011;3316;44.118;27.258;2022-09-27T01:46:54;10.33;;;6.90;;
6564;SDS011;3316;44.118;27.258;2022-09-27T01:49:29;8.93;;;6.10;;
6564;SDS011;3316;44.118;27.258;2022-09-27T01:51:59;10.50;;;6.27;;
6564;SDS011;3316;44.118;27.258;2022-09-27T01:54:39;9.97;;;5.63;;
6564;SDS011;3316;44.118;27.258;2022-09-27T01:57:12;9.03;;;5.97;;
6564;SDS011;3316;44.118;27.258;2022-09-27T01:59:48;11.43;;;6.33;;
6564;SDS011;3316;44.118;27.258;2022-09-27T02:02:19;7.83;;;6.43;;
6564;SDS011;3316;44.118;27.258;2022-09-27T02:04:51;9.50;;;5.67;;
6564;SDS011;3316;44.118;27.258;2022-09-27T02:07:23;11.90;;;6.60;;
6564;SDS011;3316;44.118;27.258;2022-09-27T02:10:02;7.70;;;6.10;;
6564;SDS011;3316;44.118;27.258;2022-09-27T02:12:36;15.33;;;7.07;;
6564;SDS011;3316;44.118;27.258;2022-09-27T02:15:09;7.97;;;5.97;;
6564;SDS011;3316;44.118;27.258;2022-09-27T02:17:39;7.30;;;6.27;;
6564;SDS011;3316;44.118;27.258;2022-09-27T02:23:23;7.87;;;5.97;;
6564;SDS011;3316;44.118;27.258;2022-09-27T02:26:00;14.10;;;6.50;;
6564;SDS011;3316;44.118;27.258;2022-09-27T02:28:41;13.00;;;7.33;;
6564;SDS011;3316;44.118;27.258;2022-09-27T02:31:29;8.93;;;6.37;;
6564;SDS011;3316;44.118;27.258;2022-09-27T02:33:56;7.37;;;6.20;;
6564;SDS011;3316;44.118;27.258;2022-09-27T02:36:26;6.73;;;5.63;;
6564;SDS011;3316;44.118;27.258;2022-09-27T02:38:53;11.73;;;6.17;;
6564;SDS011;3316;44.118;27.258;2022-09-27T02:41:19;9.63;;;6.27;;
6564;SDS011;3316;44.118;27.258;2022-09-27T02:43:50;12.73;;;5.97;;
6564;SDS011;3316;44.118;27.258;2022-09-27T02:48:58;8.93;;;6.40;;
6564;SDS011;3316;44.118;27.258;2022-09-27T02:56:31;9.80;;;6.43;;
6564;SDS011;3316;44.118;27.258;2022-09-27T02:59:15;13.90;;;6.80;;
6564;SDS011;3316;44.118;27.258;2022-09-27T03:07:05;8.33;;;6.47;;
6564;SDS011;3316;44.118;27.258;2022-09-27T03:12:26;9.27;;;6.43;;
6564;SDS011;3316;44.118;27.258;2022-09-27T03:14:55;11.47;;;6.90;;
6564;SDS011;3316;44.118;27.258;2022-09-27T03:17:23;11.90;;;6.90;;
6564;SDS011;3316;44.118;27.258;2022-09-27T03:19:49;9.97;;;7.03;;
6564;SDS011;3316;44.118;27.258;2022-09-27T03:22:14;11.87;;;7.20;;
6564;SDS011;3316;44.118;27.258;2022-09-27T03:24:40;10.27;;;6.83;;
6564;SDS011;3316;44.118;27.258;2022-09-27T03:27:06;12.17;;;7.40;;
6564;SDS011;3316;44.118;27.258;2022-09-27T03:29:32;9.77;;;7.77;;
6564;SDS011;3316;44.118;27.258;2022-09-27T03:31:58;9.40;;;7.17;;
6564;SDS011;3316;44.118;27.258;2022-09-27T03:34:24;10.53;;;6.77;;
6564;SDS011;3316;44.118;27.258;2022-09-27T03:36:49;9.93;;;7.27;;
6564;SDS011;3316;44.118;27.258;2022-09-27T03:39:15;11.27;;;8.63;;
6564;SDS011;3316;44.118;27.258;2022-09-27T03:41:40;14.83;;;7.33;;
6564;SDS011;3316;44.118;27.258;2022-09-27T03:44:06;10.17;;;7.67;;
6564;SDS011;3316;44.118;27.258;2022-09-27T03:46:32;12.20;;;7.90;;
6564;SDS011;3316;44.118;27.258;2022-09-27T03:48:58;13.70;;;7.37;;
6564;SDS011;3316;44.118;27.258;2022-09-27T03:51:23;9.93;;;7.30;;
6564;SDS011;3316;44.118;27.258;2022-09-27T03:53:49;12.97;;;7.70;;
6564;SDS011;3316;44.118;27.258;2022-09-27T03:56:15;10.13;;;7.63;;
6564;SDS011;3316;44.118;27.258;2022-09-27T03:58:40;12.73;;;8.03;;
6564;SDS011;3316;44.118;27.258;2022-09-27T04:01:06;11.47;;;8.83;;
6564;SDS011;3316;44.118;27.258;2022-09-27T04:03:32;15.27;;;8.10;;
6564;SDS011;3316;44.118;27.258;2022-09-27T04:05:57;13.03;;;9.63;;
6564;SDS011;3316;44.118;27.258;2022-09-27T04:08:24;12.27;;;8.73;;
6564;SDS011;3316;44.118;27.258;2022-09-27T04:10:50;12.60;;;8.47;;
6564;SDS011;3316;44.118;27.258;2022-09-27T04:13:15;12.30;;;8.17;;
6564;SDS011;3316;44.118;27.258;2022-09-27T04:15:41;9.47;;;8.40;;
6564;SDS011;3316;44.118;27.258;2022-09-27T04:18:07;13.47;;;8.90;;
6564;SDS011;3316;44.118;27.258;2022-09-27T04:20:33;10.67;;;8.93;;
6564;SDS011;3316;44.118;27.258;2022-09-27T04:23:00;13.33;;;8.87;;
6564;SDS011;3316;44.118;27.258;2022-09-27T04:25:25;11.53;;;8.97;;
6564;SDS011;3316;44.118;27.258;2022-09-27T04:27:51;11.63;;;9.17;;
6564;SDS011;3316;44.118;27.258;2022-09-27T04:30:18;12.93;;;9.23;;
6564;SDS011;3316;44.118;27.258;2022-09-27T04:32:44;13.63;;;10.00;;
6564;SDS011;3316;44.118;27.258;2022-09-27T04:35:10;15.03;;;9.70;;
6564;SDS011;3316;44.118;27.258;2022-09-27T04:37:55;16.90;;;10.80;;
6564;SDS011;3316;44.118;27.258;2022-09-27T04:40:21;14.07;;;10.63;;
6564;SDS011;3316;44.118;27.258;2022-09-27T04:42:48;23.97;;;13.97;;
6564;SDS011;3316;44.118;27.258;2022-09-27T04:45:14;22.13;;;13.20;;
6564;SDS011;3316;44.118;27.258;2022-09-27T04:47:49;18.73;;;11.43;;
6564;SDS011;3316;44.118;27.258;2022-09-27T04:50:15;22.10;;;13.30;;
6564;SDS011;3316;44.118;27.258;2022-09-27T04:52:42;78.43;;;35.37;;
6564;SDS011;3316;44.118;27.258;2022-09-27T04:55:07;23.20;;;14.20;;
6564;SDS011;3316;44.118;27.258;2022-09-27T04:57:33;38.70;;;17.53;;
6564;SDS011;3316;44.118;27.258;2022-09-27T04:59:59;35.00;;;17.30;;
6564;SDS011;3316;44.118;27.258;2022-09-27T05:02:25;38.10;;;19.47;;
6564;SDS011;3316;44.118;27.258;2022-09-27T05:04:52;24.40;;;13.27;;
6564;SDS011;3316;44.118;27.258;2022-09-27T05:07:23;38.33;;;20.80;;
6564;SDS011;3316;44.118;27.258;2022-09-27T05:09:49;110.47;;;50.37;;
6564;SDS011;3316;44.118;27.258;2022-09-27T05:12:14;22.60;;;13.77;;
6564;SDS011;3316;44.118;27.258;2022-09-27T05:14:40;31.63;;;19.37;;
6564;SDS011;3316;44.118;27.258;2022-09-27T05:17:05;111.10;;;46.90;;
6564;SDS011;3316;44.118;27.258;2022-09-27T05:19:32;67.27;;;31.20;;
6564;SDS011;3316;44.118;27.258;2022-09-27T05:21:58;53.93;;;27.07;;
6564;SDS011;3316;44.118;27.258;2022-09-27T05:24:23;56.87;;;32.50;;
6564;SDS011;3316;44.118;27.258;2022-09-27T05:26:49;61.70;;;33.33;;
6564;SDS011;3316;44.118;27.258;2022-09-27T05:29:15;145.43;;;62.70;;
6564;SDS011;3316;44.118;27.258;2022-09-27T05:31:42;51.20;;;29.67;;
6564;SDS011;3316;44.118;27.258;2022-09-27T05:34:07;25.07;;;16.97;;
6564;SDS011;3316;44.118;27.258;2022-09-27T05:36:34;22.67;;;15.60;;
6564;SDS011;3316;44.118;27.258;2022-09-27T05:39:01;56.57;;;29.17;;
6564;SDS011;3316;44.118;27.258;2022-09-27T05:41:27;45.17;;;27.40;;
6564;SDS011;3316;44.118;27.258;2022-09-27T05:43:52;31.17;;;21.37;;
6564;SDS011;3316;44.118;27.258;2022-09-27T05:46:17;85.63;;;39.10;;
6564;SDS011;3316;44.118;27.258;2022-09-27T05:48:43;95.50;;;43.50;;
6564;SDS011;3316;44.118;27.258;2022-09-27T05:51:08;31.73;;;19.20;;
6564;SDS011;3316;44.118;27.258;2022-09-27T05:53:34;22.63;;;12.90;;
6564;SDS011;3316;44.118;27.258;2022-09-27T05:56:01;30.00;;;20.07;;
6564;SDS011;3316;44.118;27.258;2022-09-27T05:58:28;26.83;;;16.73;;
6564;SDS011;3316;44.118;27.258;2022-09-27T06:00:53;17.90;;;12.87;;
6564;SDS011;3316;44.118;27.258;2022-09-27T06:03:19;16.37;;;13.13;;
6564;SDS011;3316;44.118;27.258;2022-09-27T06:05:44;21.77;;;13.97;;
6564;SDS011;3316;44.118;27.258;2022-09-27T06:08:10;20.60;;;14.50;;
6564;SDS011;3316;44.118;27.258;2022-09-27T06:10:37;18.60;;;13.70;;
6564;SDS011;3316;44.118;27.258;2022-09-27T06:13:05;24.73;;;16.10;;
6564;SDS011;3316;44.118;27.258;2022-09-27T06:15:32;18.37;;;13.83;;
6564;SDS011;3316;44.118;27.258;2022-09-27T06:18:07;19.97;;;14.27;;
6564;SDS011;3316;44.118;27.258;2022-09-27T06:20:34;23.93;;;15.33;;
6564;SDS011;3316;44.118;27.258;2022-09-27T06:23:34;17.77;;;13.83;;
6564;SDS011;3316;44.118;27.258;2022-09-27T06:25:53;21.70;;;13.53;;
6564;SDS011;3316;44.118;27.258;2022-09-27T06:28:19;18.83;;;13.53;;
6564;SDS011;3316;44.118;27.258;2022-09-27T06:30:46;19.27;;;13.33;;
6564;SDS011;3316;44.118;27.258;2022-09-27T06:33:17;16.63;;;12.97;;
6564;SDS011;3316;44.118;27.258;2022-09-27T06:35:43;127.27;;;59.87;;
6564;SDS011;3316;44.118;27.258;2022-09-27T06:38:11;25.57;;;18.83;;
6564;SDS011;3316;44.118;27.258;2022-09-27T06:40:38;49.97;;;33.50;;
6564;SDS011;3316;44.118;27.258;2022-09-27T06:43:07;38.17;;;27.40;;
6564;SDS011;3316;44.118;27.258;2022-09-27T06:45:35;52.60;;;35.50;;
6564;SDS011;3316;44.118;27.258;2022-09-27T06:48:01;48.43;;;29.57;;
6564;SDS011;3316;44.118;27.258;2022-09-27T06:50:28;15.93;;;11.03;;
6564;SDS011;3316;44.118;27.258;2022-09-27T06:52:54;21.73;;;15.20;;
6564;SDS011;3316;44.118;27.258;2022-09-27T06:55:20;65.67;;;26.17;;
6564;SDS011;3316;44.118;27.258;2022-09-27T06:57:46;13.80;;;9.30;;
6564;SDS011;3316;44.118;27.258;2022-09-27T07:00:30;13.75;;;10.75;;
6564;SDS011;3316;44.118;27.258;2022-09-27T07:02:56;22.17;;;16.77;;
6564;SDS011;3316;44.118;27.258;2022-09-27T07:05:28;34.53;;;22.02;;
6564;SDS011;3316;44.118;27.258;2022-09-27T07:07:57;31.17;;;21.30;;
6564;SDS011;3316;44.118;27.258;2022-09-27T07:10:27;14.23;;;10.57;;
6564;SDS011;3316;44.118;27.258;2022-09-27T07:12:54;27.55;;;15.40;;
6564;SDS011;3316;44.118;27.258;2022-09-27T07:15:20;15.57;;;11.02;;
6564;SDS011;3316;44.118;27.258;2022-09-27T07:17:46;13.90;;;10.27;;
6564;SDS011;3316;44.118;27.258;2022-09-27T07:20:19;13.90;;;9.77;;
6564;SDS011;3316;44.118;27.258;2022-09-27T07:22:45;12.55;;;9.55;;
6564;SDS011;3316;44.118;27.258;2022-09-27T07:25:10;13.77;;;9.30;;
6564;SDS011;3316;44.118;27.258;2022-09-27T07:27:36;9.63;;;8.63;;
6564;SDS011;3316;44.118;27.258;2022-09-27T07:30:02;10.65;;;8.68;;
6564;SDS011;3316;44.118;27.258;2022-09-27T07:32:29;12.40;;;8.75;;
6564;SDS011;3316;44.118;27.258;2022-09-27T07:34:54;16.27;;;9.93;;
6564;SDS011;3316;44.118;27.258;2022-09-27T07:37:20;14.18;;;9.57;;
6564;SDS011;3316;44.118;27.258;2022-09-27T07:39:45;12.50;;;9.20;;
6564;SDS011;3316;44.118;27.258;2022-09-27T07:42:11;13.30;;;8.52;;
6564;SDS011;3316;44.118;27.258;2022-09-27T07:44:36;10.30;;;8.23;;
6564;SDS011;3316;44.118;27.258;2022-09-27T07:47:05;18.42;;;10.07;;
6564;SDS011;3316;44.118;27.258;2022-09-27T07:49:31;24.98;;;14.93;;
6564;SDS011;3316;44.118;27.258;2022-09-27T07:51:56;14.68;;;10.15;;
6564;SDS011;3316;44.118;27.258;2022-09-27T07:54:22;13.02;;;9.45;;
6564;SDS011;3316;44.118;27.258;2022-09-27T07:56:48;17.13;;;10.73;;
6564;SDS011;3316;44.118;27.258;2022-09-27T07:59:13;13.35;;;8.10;;
6564;SDS011;3316;44.118;27.258;2022-09-27T08:01:39;21.92;;;14.23;;
6564;SDS011;3316;44.118;27.258;2022-09-27T08:04:04;14.48;;;10.27;;
6564;SDS011;3316;44.118;27.258;2022-09-27T08:06:30;16.65;;;10.55;;
6564;SDS011;3316;44.118;27.258;2022-09-27T08:08:55;10.50;;;6.82;;
6564;SDS011;3316;44.118;27.258;2022-09-27T08:11:22;9.68;;;6.97;;
6564;SDS011;3316;44.118;27.258;2022-09-27T08:13:48;21.30;;;10.70;;
6564;SDS011;3316;44.118;27.258;2022-09-27T08:16:16;26.98;;;12.40;;
6564;SDS011;3316;44.118;27.258;2022-09-27T08:18:42;18.25;;;9.38;;
6564;SDS011;3316;44.118;27.258;2022-09-27T08:21:08;9.15;;;6.40;;
6564;SDS011;3316;44.118;27.258;2022-09-27T08:23:34;12.23;;;6.53;;
6564;SDS011;3316;44.118;27.258;2022-09-27T08:26:01;10.73;;;6.97;;
6564;SDS011;3316;44.118;27.258;2022-09-27T08:28:26;9.98;;;7.28;;
6564;SDS011;3316;44.118;27.258;2022-09-27T08:30:52;12.30;;;6.45;;
6564;SDS011;3316;44.118;27.258;2022-09-27T08:33:18;13.20;;;8.10;;
6564;SDS011;3316;44.118;27.258;2022-09-27T08:35:44;9.20;;;6.15;;
6564;SDS011;3316;44.118;27.258;2022-09-27T08:38:09;37.90;;;18.02;;
6564;SDS011;3316;44.118;27.258;2022-09-27T08:48:48;10.20;;;5.38;;
6564;SDS011;3316;44.118;27.258;2022-09-27T08:51:19;10.52;;;5.28;;
6564;SDS011;3316;44.118;27.258;2022-09-27T08:53:55;18.65;;;11.35;;
6564;SDS011;3316;44.118;27.258;2022-09-27T08:56:25;39.13;;;19.30;;
6564;SDS011;3316;44.118;27.258;2022-09-27T08:58:52;45.10;;;20.58;;
6564;SDS011;3316;44.118;27.258;2022-09-27T09:01:26;85.07;;;38.13;;
6564;SDS011;3316;44.118;27.258;2022-09-27T09:03:52;16.95;;;10.07;;
6564;SDS011;3316;44.118;27.258;2022-09-27T09:23:24;13.98;;;9.80;;
6564;SDS011;3316;44.118;27.258;2022-09-27T09:31:42;8.40;;;7.45;;
6564;SDS011;3316;44.118;27.258;2022-09-27T09:34:28;9.98;;;7.55;;
6564;SDS011;3316;44.118;27.258;2022-09-27T09:39:38;9.45;;;6.93;;
6564;SDS011;3316;44.118;27.258;2022-09-27T09:42:12;9.75;;;7.70;;
6564;SDS011;3316;44.118;27.258;2022-09-27T09:44:46;9.73;;;6.43;;
6564;SDS011;3316;44.118;27.258;2022-09-27T09:50:28;8.43;;;7.57;;
6564;SDS011;3316;44.118;27.258;2022-09-27T09:53:03;11.65;;;7.78;;
6564;SDS011;3316;44.118;27.258;2022-09-27T09:55:36;17.65;;;8.25;;
6564;SDS011;3316;44.118;27.258;2022-09-27T09:58:23;12.43;;;7.82;;
6564;SDS011;3316;44.118;27.258;2022-09-27T10:00:55;17.38;;;11.05;;
6564;SDS011;3316;44.118;27.258;2022-09-27T10:03:25;14.55;;;8.38;;
6564;SDS011;3316;44.118;27.258;2022-09-27T10:05:50;17.90;;;10.82;;
6564;SDS011;3316;44.118;27.258;2022-09-27T10:08:17;7.65;;;6.20;;
6564;SDS011;3316;44.118;27.258;2022-09-27T10:10:44;9.13;;;6.30;;
6564;SDS011;3316;44.118;27.258;2022-09-27T10:13:20;9.52;;;7.13;;
6564;SDS011;3316;44.118;27.258;2022-09-27T10:15:49;9.52;;;6.35;;
6564;SDS011;3316;44.118;27.258;2022-09-27T10:18:21;13.73;;;8.90;;
6564;SDS011;3316;44.118;27.258;2022-09-27T10:20:49;11.93;;;8.30;;
6564;SDS011;3316;44.118;27.258;2022-09-27T10:23:20;10.32;;;8.60;;
6564;SDS011;3316;44.118;27.258;2022-09-27T10:25:53;10.45;;;6.55;;
6564;SDS011;3316;44.118;27.258;2022-09-27T10:28:34;6.35;;;5.57;;
6564;SDS011;3316;44.118;27.258;2022-09-27T10:31:05;10.32;;;7.47;;
6564;SDS011;3316;44.118;27.258;2022-09-27T10:33:33;16.77;;;10.88;;
6564;SDS011;3316;44.118;27.258;2022-09-27T10:36:01;18.00;;;11.18;;
6564;SDS011;3316;44.118;27.258;2022-09-27T10:38:29;9.80;;;6.72;;
6564;SDS011;3316;44.118;27.258;2022-09-27T10:43:48;13.50;;;7.63;;
6564;SDS011;3316;44.118;27.258;2022-09-27T10:46:34;16.65;;;9.77;;
6564;SDS011;3316;44.118;27.258;2022-09-27T10:51:50;9.02;;;6.90;;
6564;SDS011;3316;44.118;27.258;2022-09-27T10:54:29;7.40;;;5.35;;
6564;SDS011;3316;44.118;27.258;2022-09-27T10:57:25;9.70;;;5.97;;
6564;SDS011;3316;44.118;27.258;2022-09-27T10:59:57;43.63;;;23.23;;
6564;SDS011;3316;44.118;27.258;2022-09-27T11:07:36;32.03;;;14.77;;
6564;SDS011;3316;44.118;27.258;2022-09-27T11:10:06;8.80;;;6.13;;
6564;SDS011;3316;44.118;27.258;2022-09-27T11:24:26;9.40;;;5.30;;
6564;SDS011;3316;44.118;27.258;2022-09-27T11:42:44;5.80;;;4.13;;
6564;SDS011;3316;44.118;27.258;2022-09-27T11:45:23;4.45;;;4.05;;
6564;SDS011;3316;44.118;27.258;2022-09-27T11:51:07;6.35;;;4.32;;
6564;SDS011;3316;44.118;27.258;2022-09-27T12:02:30;13.68;;;8.65;;
6564;SDS011;3316;44.118;27.258;2022-09-27T12:10:37;6.47;;;5.20;;
6564;SDS011;3316;44.118;27.258;2022-09-27T12:13:07;6.95;;;4.80;;
6564;SDS011;3316;44.118;27.258;2022-09-27T12:15:38;7.50;;;4.90;;
6564;SDS011;3316;44.118;27.258;2022-09-27T12:20:41;8.35;;;5.78;;
6564;SDS011;3316;44.118;27.258;2022-09-27T12:25:44;9.43;;;5.60;;
6564;SDS011;3316;44.118;27.258;2022-09-27T12:31:16;12.45;;;7.13;;
6564;SDS011;3316;44.118;27.258;2022-09-27T12:33:48;8.55;;;3.63;;
6564;SDS011;3316;44.118;27.258;2022-09-27T12:36:22;11.23;;;7.93;;
6564;SDS011;3316;44.118;27.258;2022-09-27T12:41:50;7.60;;;6.07;;
6564;SDS011;3316;44.118;27.258;2022-09-27T12:44:25;17.80;;;10.02;;
6564;SDS011;3316;44.118;27.258;2022-09-27T12:47:08;54.28;;;32.30;;
6564;SDS011;3316;44.118;27.258;2022-09-27T12:52:15;14.63;;;8.48;;
6564;SDS011;3316;44.118;27.258;2022-09-27T13:00:03;6.85;;;3.60;;
6564;SDS011;3316;44.118;27.258;2022-09-27T13:03:28;5.18;;;4.28;;
6564;SDS011;3316;44.118;27.258;2022-09-27T13:13:47;5.28;;;3.90;;
6564;SDS011;3316;44.118;27.258;2022-09-27T13:16:13;5.70;;;4.30;;
6564;SDS011;3316;44.118;27.258;2022-09-27T13:29:47;8.10;;;5.50;;
6564;SDS011;3316;44.118;27.258;2022-09-27T13:32:14;5.97;;;4.72;;
6564;SDS011;3316;44.118;27.258;2022-09-27T13:34:52;6.82;;;4.53;;
6564;SDS011;3316;44.118;27.258;2022-09-27T13:37:33;7.60;;;4.90;;
6564;SDS011;3316;44.118;27.258;2022-09-27T13:45:58;8.10;;;6.22;;
6564;SDS011;3316;44.118;27.258;2022-09-27T13:49:31;7.25;;;5.13;;
6564;SDS011;3316;44.118;27.258;2022-09-27T13:51:45;8.00;;;5.80;;
6564;SDS011;3316;44.118;27.258;2022-09-27T13:56:59;9.63;;;5.80;;
6564;SDS011;3316;44.118;27.258;2022-09-27T13:59:42;19.95;;;10.55;;
6564;SDS011;3316;44.118;27.258;2022-09-27T14:02:22;11.63;;;7.88;;
6564;SDS011;3316;44.118;27.258;2022-09-27T14:04:52;15.10;;;9.27;;
6564;SDS011;3316;44.118;27.258;2022-09-27T14:07:24;9.38;;;5.97;;
6564;SDS011;3316;44.118;27.258;2022-09-27T14:09:53;9.25;;;4.38;;
6564;SDS011;3316;44.118;27.258;2022-09-27T14:12:26;7.65;;;4.82;;
6564;SDS011;3316;44.118;27.258;2022-09-27T14:14:55;8.63;;;5.30;;
6564;SDS011;3316;44.118;27.258;2022-09-27T14:17:22;7.32;;;4.90;;
6564;SDS011;3316;44.118;27.258;2022-09-27T14:19:50;6.43;;;4.88;;
6564;SDS011;3316;44.118;27.258;2022-09-27T14:22:18;6.88;;;4.10;;
6564;SDS011;3316;44.118;27.258;2022-09-27T14:24:47;5.88;;;4.43;;
6564;SDS011;3316;44.118;27.258;2022-09-27T14:27:15;10.48;;;5.03;;
6564;SDS011;3316;44.118;27.258;2022-09-27T14:32:15;5.63;;;4.25;;
6564;SDS011;3316;44.118;27.258;2022-09-27T14:34:43;9.30;;;4.97;;
6564;SDS011;3316;44.118;27.258;2022-09-27T14:37:17;5.15;;;4.43;;
6564;SDS011;3316;44.118;27.258;2022-09-27T14:39:54;7.07;;;5.13;;
6564;SDS011;3316;44.118;27.258;2022-09-27T14:42:23;7.95;;;5.50;;
6564;SDS011;3316;44.118;27.258;2022-09-27T14:44:50;8.43;;;5.28;;
6564;SDS011;3316;44.118;27.258;2022-09-27T14:49:49;8.70;;;5.30;;
6564;SDS011;3316;44.118;27.258;2022-09-27T14:52:19;12.85;;;5.97;;
6564;SDS011;3316;44.118;27.258;2022-09-27T14:54:58;6.50;;;5.10;;
6564;SDS011;3316;44.118;27.258;2022-09-27T14:57:30;7.32;;;4.57;;
6564;SDS011;3316;44.118;27.258;2022-09-27T14:59:58;5.65;;;4.30;;
6564;SDS011;3316;44.118;27.258;2022-09-27T15:02:27;4.85;;;4.25;;
6564;SDS011;3316;44.118;27.258;2022-09-27T15:04:53;5.05;;;4.28;;
6564;SDS011;3316;44.118;27.258;2022-09-27T15:07:19;6.25;;;4.30;;
6564;SDS011;3316;44.118;27.258;2022-09-27T15:09:46;6.90;;;4.65;;
6564;SDS011;3316;44.118;27.258;2022-09-27T15:12:15;5.38;;;4.22;;
6564;SDS011;3316;44.118;27.258;2022-09-27T15:14:47;6.82;;;4.90;;
6564;SDS011;3316;44.118;27.258;2022-09-27T15:17:15;9.38;;;5.03;;
6564;SDS011;3316;44.118;27.258;2022-09-27T15:20:17;7.35;;;4.45;;
6564;SDS011;3316;44.118;27.258;2022-09-27T15:22:49;11.30;;;5.38;;
6564;SDS011;3316;44.118;27.258;2022-09-27T15:27:49;7.13;;;5.32;;
6564;SDS011;3316;44.118;27.258;2022-09-27T15:30:32;7.63;;;4.90;;
6564;SDS011;3316;44.118;27.258;2022-09-27T15:32:58;11.63;;;6.32;;
6564;SDS011;3316;44.118;27.258;2022-09-27T15:35:26;7.22;;;4.80;;
6564;SDS011;3316;44.118;27.258;2022-09-27T15:38:40;8.65;;;5.07;;
6564;SDS011;3316;44.118;27.258;2022-09-27T15:43:33;6.13;;;4.72;;
6564;SDS011;3316;44.118;27.258;2022-09-27T15:46:04;5.63;;;4.93;;
6564;SDS011;3316;44.118;27.258;2022-09-27T15:51:46;6.43;;;5.13;;
6564;SDS011;3316;44.118;27.258;2022-09-27T15:54:17;7.90;;;4.95;;
6564;SDS011;3316;44.118;27.258;2022-09-27T15:56:47;7.07;;;5.07;;
6564;SDS011;3316;44.118;27.258;2022-09-27T16:01:46;5.90;;;4.93;;
6564;SDS011;3316;44.118;27.258;2022-09-27T16:04:12;8.38;;;5.35;;
6564;SDS011;3316;44.118;27.258;2022-09-27T16:06:38;7.80;;;5.57;;
6564;SDS011;3316;44.118;27.258;2022-09-27T16:09:08;10.68;;;5.80;;
6564;SDS011;3316;44.118;27.258;2022-09-27T16:11:41;12.82;;;6.68;;
6564;SDS011;3316;44.118;27.258;2022-09-27T16:14:07;8.82;;;5.50;;
6564;SDS011;3316;44.118;27.258;2022-09-27T16:16:33;6.85;;;5.15;;
6564;SDS011;3316;44.118;27.258;2022-09-27T16:18:58;9.25;;;5.35;;
6564;SDS011;3316;44.118;27.258;2022-09-27T16:21:24;8.68;;;5.45;;
6564;SDS011;3316;44.118;27.258;2022-09-27T16:23:49;7.38;;;5.32;;
6564;SDS011;3316;44.118;27.258;2022-09-27T16:26:15;14.00;;;6.60;;
6564;SDS011;3316;44.118;27.258;2022-09-27T16:28:41;9.45;;;6.95;;
6564;SDS011;3316;44.118;27.258;2022-09-27T16:31:06;10.82;;;6.28;;
6564;SDS011;3316;44.118;27.258;2022-09-27T16:33:34;17.85;;;6.97;;
6564;SDS011;3316;44.118;27.258;2022-09-27T16:36:03;10.57;;;6.78;;
6564;SDS011;3316;44.118;27.258;2022-09-27T16:38:30;14.05;;;6.90;;
6564;SDS011;3316;44.118;27.258;2022-09-27T16:41:00;15.23;;;8.95;;
6564;SDS011;3316;44.118;27.258;2022-09-27T16:43:26;10.20;;;7.10;;
6564;SDS011;3316;44.118;27.258;2022-09-27T16:45:52;17.33;;;7.77;;
6564;SDS011;3316;44.118;27.258;2022-09-27T16:48:18;16.57;;;7.30;;
6564;SDS011;3316;44.118;27.258;2022-09-27T16:50:44;16.53;;;7.83;;
6564;SDS011;3316;44.118;27.258;2022-09-27T16:53:28;12.80;;;8.00;;
6564;SDS011;3316;44.118;27.258;2022-09-27T16:55:57;14.57;;;8.20;;
6564;SDS011;3316;44.118;27.258;2022-09-27T16:58:23;15.93;;;8.03;;
6564;SDS011;3316;44.118;27.258;2022-09-27T17:00:49;11.98;;;6.97;;
6564;SDS011;3316;44.118;27.258;2022-09-27T17:03:14;10.10;;;6.22;;
6564;SDS011;3316;44.118;27.258;2022-09-27T17:05:39;10.50;;;7.32;;
6564;SDS011;3316;44.118;27.258;2022-09-27T17:08:05;11.50;;;8.50;;
6564;SDS011;3316;44.118;27.258;2022-09-27T17:10:30;12.30;;;8.85;;
6564;SDS011;3316;44.118;27.258;2022-09-27T17:12:56;11.70;;;8.77;;
6564;SDS011;3316;44.118;27.258;2022-09-27T17:15:22;14.88;;;8.75;;
6564;SDS011;3316;44.118;27.258;2022-09-27T17:17:48;26.93;;;13.90;;
6564;SDS011;3316;44.118;27.258;2022-09-27T17:20:14;22.83;;;11.20;;
6564;SDS011;3316;44.118;27.258;2022-09-27T17:22:40;19.13;;;10.73;;
6564;SDS011;3316;44.118;27.258;2022-09-27T17:25:05;23.30;;;11.70;;
6564;SDS011;3316;44.118;27.258;2022-09-27T17:27:31;17.63;;;11.60;;
6564;SDS011;3316;44.118;27.258;2022-09-27T17:29:56;18.70;;;11.07;;
6564;SDS011;3316;44.118;27.258;2022-09-27T17:32:22;17.70;;;11.03;;
6564;SDS011;3316;44.118;27.258;2022-09-27T17:34:49;19.43;;;10.23;;
6564;SDS011;3316;44.118;27.258;2022-09-27T17:37:15;15.40;;;10.17;;
6564;SDS011;3316;44.118;27.258;2022-09-27T17:39:41;18.57;;;10.93;;
6564;SDS011;3316;44.118;27.258;2022-09-27T17:42:06;13.67;;;9.63;;
6564;SDS011;3316;44.118;27.258;2022-09-27T17:44:32;17.93;;;10.00;;
6564;SDS011;3316;44.118;27.258;2022-09-27T17:46:57;17.27;;;10.00;;
6564;SDS011;3316;44.118;27.258;2022-09-27T17:49:42;11.63;;;8.93;;
6564;SDS011;3316;44.118;27.258;2022-09-27T17:52:25;13.57;;;8.37;;
6564;SDS011;3316;44.118;27.258;2022-09-27T17:54:52;13.03;;;8.17;;
6564;SDS011;3316;44.118;27.258;2022-09-27T17:57:19;14.23;;;7.53;;
6564;SDS011;3316;44.118;27.258;2022-09-27T17:59:45;9.67;;;7.47;;
6564;SDS011;3316;44.118;27.258;2022-09-27T18:02:11;11.83;;;7.80;;
6564;SDS011;3316;44.118;27.258;2022-09-27T18:04:36;15.50;;;8.03;;
6564;SDS011;3316;44.118;27.258;2022-09-27T18:07:02;13.03;;;8.03;;
6564;SDS011;3316;44.118;27.258;2022-09-27T18:09:27;15.37;;;9.97;;
6564;SDS011;3316;44.118;27.258;2022-09-27T18:11:53;17.03;;;9.30;;
6564;SDS011;3316;44.118;27.258;2022-09-27T18:14:18;18.10;;;9.40;;
6564;SDS011;3316;44.118;27.258;2022-09-27T18:16:45;13.23;;;9.13;;
6564;SDS011;3316;44.118;27.258;2022-09-27T18:19:11;14.23;;;9.60;;
6564;SDS011;3316;44.118;27.258;2022-09-27T18:21:38;14.40;;;9.13;;
6564;SDS011;3316;44.118;27.258;2022-09-27T18:24:04;13.97;;;9.03;;
6564;SDS011;3316;44.118;27.258;2022-09-27T18:26:30;13.63;;;8.93;;
6564;SDS011;3316;44.118;27.258;2022-09-27T18:29:00;15.67;;;10.00;;
6564;SDS011;3316;44.118;27.258;2022-09-27T18:31:29;13.77;;;8.73;;